createdAt,value
2023-04-02T00:02:21.429Z,94.39
2023-04-02T00:05:26.291Z,94.09
2023-04-02T00:07:57.952Z,94.35
2023-04-02T00:10:46.797Z,94.01
2023-04-02T00:13:13.589Z,93.98
2023-04-02T00:15:42.763Z,93.90
2023-04-02T00:18:18.458Z,94.18
2023-04-02T00:20:51.192Z,94.15
2023-04-02T00:23:17.657Z,93.92
2023-04-02T00:25:46.118Z,93.65
2023-04-02T00:28:15.546Z,93.87
2023-04-02T00:30:47.934Z,93.79
2023-04-02T00:33:18.016Z,93.29
2023-04-02T00:35:44.604Z,93.72
2023-04-02T00:38:22.565Z,93.90
2023-04-02T00:40:51.483Z,93.52
2023-04-02T00:43:18.419Z,93.79
2023-04-02T00:45:51.209Z,93.45
2023-04-02T00:48:37.929Z,93.43
2023-04-02T00:51:38.720Z,93.36
2023-04-02T00:54:06.804Z,93.19
2023-04-02T00:56:43.317Z,93.40
2023-04-02T00:59:42.926Z,93.15
2023-04-02T01:02:17.237Z,92.98
2023-04-02T01:05:02.695Z,93.48
2023-04-02T01:07:54.360Z,92.87
2023-04-02T01:10:29.722Z,93.45
2023-04-02T01:13:13.634Z,93.26
2023-04-02T01:16:07.486Z,92.99
2023-04-02T01:18:57.241Z,93.00
2023-04-02T01:21:56.178Z,93.33
2023-04-02T01:24:26.455Z,93.23
2023-04-02T01:26:59.352Z,92.86
2023-04-02T01:29:32.866Z,92.48
2023-04-02T01:32:04.175Z,92.95
2023-04-02T01:34:31.016Z,92.55
2023-04-02T01:37:11.381Z,92.88
2023-04-02T01:39:55.731Z,92.73
2023-04-02T01:42:29.861Z,92.41
2023-04-02T01:45:07.940Z,92.14
2023-04-02T01:47:34.527Z,92.24
2023-04-02T01:50:31.458Z,91.94
2023-04-02T01:53:04.289Z,91.96
2023-04-02T01:55:31.282Z,92.10
2023-04-02T01:58:00.120Z,92.08
2023-04-02T02:00:30.184Z,91.89
2023-04-02T02:02:56.938Z,92.30
2023-04-02T02:05:23.855Z,92.52
2023-04-02T02:07:52.146Z,92.30
2023-04-02T02:10:25.735Z,92.40
2023-04-02T02:12:52.501Z,92.01
2023-04-02T02:15:24.029Z,92.21
2023-04-02T02:17:55.546Z,92.45
2023-04-02T02:20:22.207Z,92.12
2023-04-02T02:22:51.129Z,92.18
2023-04-02T02:25:21.604Z,92.05
2023-04-02T02:28:08.345Z,91.94
2023-04-02T02:30:42.045Z,91.94
2023-04-02T02:33:16.442Z,91.97
2023-04-02T02:36:12.960Z,92.28
2023-04-02T02:38:56.213Z,92.35
2023-04-02T02:41:27.060Z,92.25
2023-04-02T02:44:00.552Z,92.16
2023-04-02T02:46:28.961Z,91.96
2023-04-02T02:48:57.596Z,92.35
2023-04-02T02:51:39.364Z,92.15
2023-04-02T02:54:07.774Z,92.58
2023-04-02T02:56:40.514Z,92.69
2023-04-02T02:59:09.887Z,92.64
2023-04-02T03:01:37.035Z,92.09
2023-04-02T03:04:03.753Z,91.58
2023-04-02T03:06:30.935Z,92.31
2023-04-02T03:09:39.667Z,92.20
2023-04-02T03:12:32.513Z,91.85
2023-04-02T03:15:08.192Z,91.73
2023-04-02T03:17:51.305Z,91.43
2023-04-02T03:20:26.895Z,91.75
2023-04-02T03:22:58.497Z,91.52
2023-04-02T03:25:37.079Z,91.13
2023-04-02T03:28:11.218Z,91.55
2023-04-02T03:30:37.860Z,91.74
2023-04-02T03:33:12.789Z,91.07
2023-04-02T03:36:06.253Z,91.18
2023-04-02T03:38:36.798Z,91.12
2023-04-02T03:41:22.710Z,91.04
2023-04-02T03:44:02.803Z,91.13
2023-04-02T03:46:38.214Z,90.78
2023-04-02T03:49:11.368Z,90.80
2023-04-02T03:51:47.026Z,90.53
2023-04-02T03:54:16.099Z,90.67
2023-04-02T03:56:47.165Z,90.60
2023-04-02T03:59:23.254Z,90.24
2023-04-02T04:01:59.149Z,90.43
2023-04-02T04:04:29.372Z,90.18
2023-04-02T04:06:58.408Z,90.52
2023-04-02T04:09:31.579Z,90.04
2023-04-02T04:12:16.403Z,89.87
2023-04-02T04:14:49.517Z,89.91
2023-04-02T04:17:24.620Z,90.41
2023-04-02T04:19:57.826Z,89.63
2023-04-02T04:22:32.637Z,89.93
2023-04-02T04:25:00.568Z,90.23
2023-04-02T04:27:36.652Z,90.09
2023-04-02T04:30:16.955Z,89.91
2023-04-02T04:33:05.028Z,89.86
2023-04-02T04:35:37.230Z,90.11
2023-04-02T04:38:14.590Z,89.80
2023-04-02T04:40:54.232Z,89.74
2023-04-02T04:43:34.733Z,89.80
2023-04-02T04:46:09.327Z,89.71
2023-04-02T04:48:57.085Z,89.38
2023-04-02T04:51:28.316Z,89.21
2023-04-02T04:53:55.637Z,88.72
2023-04-02T04:56:26.735Z,88.90
2023-04-02T04:59:02.189Z,89.08
2023-04-02T05:01:40.698Z,88.76
2023-04-02T05:04:19.440Z,89.22
2023-04-02T05:06:54.640Z,89.46
2023-04-02T05:09:34.725Z,88.65
2023-04-02T05:12:13.377Z,87.99
2023-04-02T05:14:48.841Z,87.73
2023-04-02T05:17:24.347Z,87.95
2023-04-02T05:20:00.863Z,88.03
2023-04-02T05:22:36.284Z,88.23
2023-04-02T05:25:24.601Z,88.52
2023-04-02T05:27:52.622Z,88.71
2023-04-02T05:30:25.183Z,88.07
2023-04-02T05:33:00.421Z,87.84
2023-04-02T05:35:34.577Z,87.81
2023-04-02T05:38:02.549Z,88.40
2023-04-02T05:40:41.770Z,88.54
2023-04-02T05:43:11.066Z,87.89
2023-04-02T05:45:41.434Z,87.68
2023-04-02T05:48:21.330Z,87.66
2023-04-02T05:50:52.702Z,87.18
2023-04-02T05:53:24.165Z,87.08
2023-04-02T05:55:57.205Z,87.42
2023-04-02T05:58:35.409Z,87.50
2023-04-02T06:01:21.484Z,86.63
2023-04-02T06:04:16.216Z,87.28
2023-04-02T06:06:46.664Z,86.98
2023-04-02T06:09:23.081Z,86.72
2023-04-02T06:11:56.973Z,87.07
2023-04-02T06:14:23.346Z,86.70
2023-04-02T06:16:49.935Z,86.37
2023-04-02T06:19:23.684Z,87.12
2023-04-02T06:21:53.025Z,86.34
2023-04-02T06:24:25.303Z,86.15
2023-04-02T06:26:57.946Z,86.21
2023-04-02T06:29:27.185Z,85.93
2023-04-02T06:31:59.890Z,86.22
2023-04-02T06:34:28.908Z,86.37
2023-04-02T06:37:01.643Z,85.71
2023-04-02T06:39:28.176Z,85.90
2023-04-02T06:42:27.073Z,86.07
2023-04-02T06:44:54.003Z,86.30
2023-04-02T06:47:37.625Z,85.36
2023-04-02T06:50:14.920Z,85.48
2023-04-02T06:52:47.674Z,85.96
2023-04-02T06:55:22.965Z,84.82
2023-04-02T06:57:49.366Z,84.68
2023-04-02T07:00:42.674Z,85.26
2023-04-02T07:03:25.900Z,85.33
2023-04-02T07:05:52.335Z,85.21
2023-04-02T07:08:18.774Z,85.34
2023-04-02T07:10:45.377Z,85.44
2023-04-02T07:13:22.534Z,85.70
2023-04-02T07:15:52.543Z,85.55
2023-04-02T07:18:28.440Z,84.94
2023-04-02T07:20:55.500Z,85.06
2023-04-02T07:23:22.196Z,85.31
2023-04-02T07:25:50.378Z,85.31
2023-04-02T07:28:17.288Z,85.70
2023-04-02T07:30:43.790Z,84.47
2023-04-02T07:33:14.746Z,84.52
2023-04-02T07:35:41.461Z,85.01
2023-04-02T07:38:08.456Z,85.61
2023-04-02T07:40:34.860Z,84.87
2023-04-02T07:43:01.481Z,84.62
2023-04-02T07:45:27.853Z,84.86
2023-04-02T07:47:54.591Z,84.20
2023-04-02T07:50:21.052Z,84.27
2023-04-02T07:52:47.408Z,84.51
2023-04-02T07:55:15.446Z,83.90
2023-04-02T07:57:48.690Z,85.70
2023-04-02T08:00:15.953Z,84.68
2023-04-02T08:02:42.684Z,85.05
2023-04-02T08:05:10.725Z,85.11
2023-04-02T08:07:37.230Z,85.32
2023-04-02T08:10:05.037Z,84.81
2023-04-02T08:12:31.481Z,84.92
2023-04-02T08:14:58.017Z,83.80
2023-04-02T08:17:24.476Z,84.09
2023-04-02T08:19:55.220Z,83.45
2023-04-02T08:22:21.925Z,82.48
2023-04-02T08:24:48.365Z,83.18
2023-04-02T08:27:15.195Z,82.26
2023-04-02T08:29:41.612Z,82.39
2023-04-02T08:32:12.364Z,82.12
2023-04-02T08:34:38.698Z,82.54
2023-04-02T08:37:05.095Z,81.96
2023-04-02T08:39:33.165Z,80.92
2023-04-02T08:42:05.009Z,80.68
2023-04-02T08:44:49.238Z,81.54
2023-04-02T08:47:19.346Z,82.13
2023-04-02T08:49:52.373Z,81.08
2023-04-02T08:52:25.782Z,80.71
2023-04-02T08:54:53.490Z,80.30
2023-04-02T08:58:02.953Z,81.93
2023-04-02T09:00:52.417Z,80.80
2023-04-02T09:03:27.693Z,81.06
2023-04-02T09:05:56.016Z,81.27
2023-04-02T09:08:25.012Z,79.67
2023-04-02T09:11:19.335Z,79.82
2023-04-02T09:13:49.033Z,80.28
2023-04-02T09:16:23.110Z,79.34
2023-04-02T09:18:52.707Z,78.50
2023-04-02T09:21:22.456Z,79.55
2023-04-02T09:23:49.842Z,78.63
2023-04-02T09:26:31.188Z,78.15
2023-04-02T09:29:12.664Z,78.59
2023-04-02T09:31:43.316Z,76.71
2023-04-02T09:34:28.711Z,74.44
2023-04-02T09:36:55.997Z,68.29
2023-04-02T09:39:28.067Z,65.99
2023-04-02T09:42:05.129Z,64.37
2023-04-02T09:44:33.241Z,60.28
2023-04-02T09:47:05.800Z,61.65
2023-04-02T09:49:38.339Z,59.44
2023-04-02T09:52:28.493Z,57.96
2023-04-02T09:55:26.158Z,56.72
2023-04-02T09:58:16.848Z,56.74
2023-04-02T10:00:51.395Z,57.79
2023-04-02T10:03:29.541Z,56.72
2023-04-02T10:06:11.366Z,58.09
2023-04-02T10:08:40.163Z,55.22
2023-04-02T10:11:12.953Z,57.01
2023-04-02T10:13:42.270Z,55.87
2023-04-02T10:16:23.412Z,57.56
2023-04-02T10:18:56.948Z,57.71
2023-04-02T10:21:31.211Z,53.28
2023-04-02T10:23:59.270Z,54.75
2023-04-02T10:27:02.964Z,53.87
2023-04-02T10:29:50.165Z,53.20
2023-04-02T10:32:20.066Z,54.13
2023-04-02T10:35:03.540Z,54.36
2023-04-02T10:38:07.141Z,52.28
2023-04-02T10:40:39.858Z,51.22
2023-04-02T10:43:34.424Z,51.74
2023-04-02T10:46:11.483Z,53.39
2023-04-02T10:48:43.788Z,51.18
2023-04-02T10:51:36.958Z,51.94
2023-04-02T10:54:23.131Z,50.84
2023-04-02T10:56:53.252Z,49.86
2023-04-02T10:59:26.167Z,51.40
2023-04-02T11:01:57.263Z,51.72
2023-04-02T11:04:32.710Z,50.93
2023-04-02T11:07:13.900Z,49.41
2023-04-02T11:09:46.247Z,52.38
2023-04-02T11:12:23.249Z,52.05
2023-04-02T11:14:51.545Z,51.10
2023-04-02T11:17:20.538Z,51.31
2023-04-02T11:19:47.214Z,48.18
2023-04-02T11:22:21.888Z,46.76
2023-04-02T11:24:57.045Z,45.64
2023-04-02T11:27:31.946Z,47.46
2023-04-02T11:30:01.258Z,47.11
2023-04-02T11:32:33.569Z,45.65
2023-04-02T11:35:06.426Z,45.68
2023-04-02T11:37:44.858Z,42.62
2023-04-02T11:40:17.614Z,43.93
2023-04-02T11:42:47.104Z,45.50
2023-04-02T11:45:28.746Z,45.60
2023-04-02T11:48:08.076Z,46.23
2023-04-02T11:50:36.258Z,46.80
2023-04-02T11:53:26.349Z,47.80
2023-04-02T11:56:30.467Z,47.82
2023-04-02T11:59:21.313Z,48.83
2023-04-02T12:02:06.558Z,42.13
2023-04-02T12:04:56.864Z,46.40
2023-04-02T12:07:35.069Z,44.32
2023-04-02T12:10:15.749Z,44.99
2023-04-02T12:12:43.055Z,43.92
2023-04-02T12:15:28.756Z,45.88
2023-04-02T12:18:06.255Z,44.81
2023-04-02T12:20:33.514Z,43.01
2023-04-02T12:23:00.286Z,44.57
2023-04-02T12:25:31.602Z,45.23
2023-04-02T12:28:10.054Z,43.62
2023-04-02T12:30:38.005Z,44.87
2023-04-02T12:33:19.718Z,41.81
2023-04-02T12:35:54.591Z,39.97
2023-04-02T12:38:29.757Z,42.65
2023-04-02T12:41:01.403Z,40.13
2023-04-02T12:43:30.191Z,38.13
2023-04-02T12:46:00.721Z,38.83
2023-04-02T12:48:29.513Z,40.00
2023-04-02T12:50:57.359Z,41.03
2023-04-02T12:53:34.009Z,40.38
2023-04-02T12:56:01.538Z,38.68
2023-04-02T12:58:33.519Z,41.51
2023-04-02T13:01:14.598Z,40.69
2023-04-02T13:03:41.548Z,39.01
2023-04-02T13:06:38.518Z,40.21
2023-04-02T13:09:34.967Z,38.93
2023-04-02T13:12:03.168Z,38.44
2023-04-02T13:14:29.868Z,37.99
2023-04-02T13:16:56.557Z,37.53
2023-04-02T13:19:31.729Z,35.80
2023-04-02T13:22:00.969Z,37.04
2023-04-02T13:24:29.657Z,36.29
2023-04-02T13:26:58.506Z,36.38
2023-04-02T13:29:36.844Z,37.27
2023-04-02T13:32:06.229Z,37.21
2023-04-02T13:34:32.833Z,36.47
2023-04-02T13:36:59.531Z,35.20
2023-04-02T13:39:26.036Z,34.80
2023-04-02T13:42:03.540Z,34.96
2023-04-02T13:44:32.413Z,38.00
2023-04-02T13:46:59.899Z,35.35
2023-04-02T13:49:27.468Z,34.15
2023-04-02T13:51:59.810Z,31.94
2023-04-02T13:54:33.662Z,34.86
2023-04-02T13:57:00.490Z,34.07
2023-04-02T13:59:27.386Z,31.68
2023-04-02T14:01:58.500Z,29.42
2023-04-02T14:04:29.068Z,33.23
2023-04-02T14:07:16.854Z,32.15
2023-04-02T14:10:12.696Z,31.25
2023-04-02T14:13:07.153Z,31.16
2023-04-02T14:16:14.729Z,31.54
2023-04-02T14:19:06.391Z,31.07
2023-04-02T14:21:39.297Z,29.23
2023-04-02T14:24:19.169Z,29.49
2023-04-02T14:27:05.528Z,28.02
2023-04-02T14:29:48.112Z,30.15
2023-04-02T14:33:07.281Z,32.17
2023-04-02T14:35:42.730Z,32.83
2023-04-02T14:38:19.561Z,28.47
2023-04-02T14:41:13.169Z,30.07
2023-04-02T14:43:44.524Z,28.22
2023-04-02T14:46:11.281Z,27.74
2023-04-02T14:48:57.095Z,27.59
2023-04-02T14:51:26.390Z,27.97
2023-04-02T14:54:01.241Z,29.53
2023-04-02T14:56:29.007Z,29.86
2023-04-02T14:59:14.517Z,28.11
2023-04-02T15:01:46.903Z,27.10
2023-04-02T15:04:37.303Z,28.58
2023-04-02T15:07:13.919Z,26.36
2023-04-02T15:09:50.462Z,26.22
2023-04-02T15:12:28.904Z,27.23
2023-04-02T15:15:04.259Z,26.67
2023-04-02T15:17:32.096Z,26.30
2023-04-02T15:20:16.677Z,25.94
2023-04-02T15:22:58.271Z,27.78
2023-04-02T15:25:46.833Z,28.05
2023-04-02T15:28:22.754Z,26.61
2023-04-02T15:30:58.133Z,27.09
2023-04-02T15:33:41.181Z,27.15
2023-04-02T15:36:16.445Z,27.11
2023-04-02T15:38:52.183Z,26.76
2023-04-02T15:41:35.906Z,26.90
2023-04-02T15:44:10.836Z,26.73
2023-04-02T15:46:44.727Z,28.23
2023-04-02T15:49:30.133Z,25.69
2023-04-02T15:52:08.737Z,27.99
2023-04-02T15:54:54.648Z,28.33
2023-04-02T15:57:29.059Z,28.83
2023-04-02T16:00:12.885Z,29.80
2023-04-02T16:03:17.469Z,31.95
2023-04-02T16:06:06.340Z,31.88
2023-04-02T16:08:56.945Z,31.72
2023-04-02T16:11:24.614Z,33.79
2023-04-02T16:13:53.613Z,33.03
2023-04-02T16:16:26.907Z,35.32
2023-04-02T16:19:02.797Z,39.06
2023-04-02T16:21:33.528Z,41.37
2023-04-02T16:24:01.274Z,42.97
2023-04-02T16:26:39.565Z,41.43
2023-04-02T16:29:15.886Z,37.21
2023-04-02T16:31:55.770Z,37.59
2023-04-02T16:34:42.763Z,36.36
2023-04-02T16:37:32.232Z,39.09
2023-04-02T16:40:15.495Z,41.32
2023-04-02T16:42:54.065Z,43.03
2023-04-02T16:45:38.285Z,43.96
2023-04-02T16:48:33.089Z,44.20
2023-04-02T16:51:29.093Z,46.21
2023-04-02T16:54:28.939Z,46.90
2023-04-02T16:57:10.566Z,45.77
2023-04-02T17:00:06.328Z,45.77
2023-04-02T17:03:29.679Z,46.27
2023-04-02T17:06:04.550Z,46.73
2023-04-02T17:08:41.792Z,47.26
2023-04-02T17:11:12.547Z,46.22
2023-04-02T17:13:47.089Z,46.96
2023-04-02T17:16:23.752Z,47.70
2023-04-02T17:18:57.779Z,47.45
2023-04-02T17:21:26.530Z,48.43
2023-04-02T17:24:00.437Z,48.89
2023-04-02T17:26:31.494Z,49.63
2023-04-02T17:29:03.612Z,49.44
2023-04-02T17:31:35.391Z,50.72
2023-04-02T17:34:24.116Z,49.41
2023-04-02T17:37:23.657Z,50.55
2023-04-02T17:40:07.583Z,50.56
2023-04-02T17:42:39.554Z,51.89
2023-04-02T17:45:13.904Z,51.53
2023-04-02T17:47:46.598Z,51.75
2023-04-02T17:50:40.452Z,52.31
2023-04-02T17:53:25.785Z,53.80
2023-04-02T17:56:08.881Z,54.75
2023-04-02T17:58:38.105Z,53.69
2023-04-02T18:01:17.765Z,52.90
2023-04-02T18:04:13.026Z,55.59
2023-04-02T18:07:12.137Z,54.05
2023-04-02T18:09:53.752Z,56.05
2023-04-02T18:12:32.075Z,55.38
2023-04-02T18:15:08.928Z,56.35
2023-04-02T18:17:53.998Z,54.81
2023-04-02T18:21:05.609Z,55.33
2023-04-02T18:24:03.957Z,58.45
2023-04-02T18:26:49.352Z,57.42
2023-04-02T18:29:39.287Z,57.74
2023-04-02T18:32:33.751Z,58.39
2023-04-02T18:35:29.496Z,58.26
2023-04-02T18:38:33.798Z,59.20
2023-04-02T18:41:12.473Z,59.41
2023-04-02T18:43:47.876Z,59.36
2023-04-02T18:46:28.239Z,59.74
2023-04-02T18:49:00.445Z,60.52
2023-04-02T18:51:31.870Z,59.98
2023-04-02T18:54:29.214Z,60.87
2023-04-02T18:56:56.140Z,60.13
2023-04-02T18:59:34.715Z,59.61
2023-04-02T19:02:18.901Z,60.97
2023-04-02T19:04:53.087Z,61.30
2023-04-02T19:07:21.407Z,60.30
2023-04-02T19:09:51.647Z,62.07
2023-04-02T19:12:20.492Z,61.86
2023-04-02T19:14:50.271Z,61.99
2023-04-02T19:17:33.412Z,63.08
2023-04-02T19:20:15.005Z,62.70
2023-04-02T19:22:56.984Z,63.43
2023-04-02T19:25:50.817Z,62.67
2023-04-02T19:28:38.844Z,64.33
2023-04-02T19:31:22.192Z,62.67
2023-04-02T19:34:07.040Z,63.70
2023-04-02T19:36:42.237Z,64.35
2023-04-02T19:39:23.874Z,64.06
2023-04-02T19:41:59.881Z,62.91
2023-04-02T19:44:26.617Z,62.75
2023-04-02T19:46:53.099Z,63.77
2023-04-02T19:49:30.295Z,64.47
2023-04-02T19:51:56.922Z,63.47
2023-04-02T19:54:23.337Z,64.91
2023-04-02T19:56:50.165Z,64.77
2023-04-02T19:59:18.766Z,64.87
2023-04-02T20:01:46.396Z,64.62
2023-04-02T20:04:14.163Z,65.85
2023-04-02T20:06:40.754Z,64.96
2023-04-02T20:09:08.618Z,64.21
2023-04-02T20:11:36.914Z,64.93
2023-04-02T20:14:03.770Z,64.99
2023-04-02T20:16:30.283Z,64.87
2023-04-02T20:18:57.883Z,65.44
2023-04-02T20:21:24.827Z,65.12
2023-04-02T20:23:55.375Z,65.69
2023-04-02T20:26:22.641Z,65.92
2023-04-02T20:28:49.242Z,65.42
2023-04-02T20:31:18.075Z,65.88
2023-04-02T20:33:44.888Z,65.35
2023-04-02T20:36:14.572Z,64.91
2023-04-02T20:38:41.632Z,65.41
2023-04-02T20:41:09.460Z,65.88
2023-04-02T20:43:37.429Z,66.04
2023-04-02T20:46:05.568Z,65.92
2023-04-02T20:48:33.125Z,65.41
2023-04-02T20:51:01.808Z,65.73
2023-04-02T20:53:34.366Z,65.61
2023-04-02T20:56:06.349Z,67.15
2023-04-02T20:58:34.597Z,66.73
2023-04-02T21:01:11.953Z,66.34
2023-04-02T21:03:39.959Z,66.52
2023-04-02T21:06:11.721Z,65.97
2023-04-02T21:08:38.251Z,66.60
2023-04-02T21:11:05.518Z,66.26
2023-04-02T21:13:36.205Z,66.36
2023-04-02T21:16:04.680Z,66.57
2023-04-02T21:18:31.540Z,66.92
2023-04-02T21:21:03.982Z,66.37
2023-04-02T21:23:31.616Z,68.14
2023-04-02T21:26:00.881Z,67.75
2023-04-02T21:28:27.981Z,67.70
2023-04-02T21:31:27.861Z,66.96
2023-04-02T21:33:57.003Z,66.27
2023-04-02T21:36:27.630Z,66.69
2023-04-02T21:39:09.376Z,66.79
2023-04-02T21:41:41.668Z,67.32
2023-04-02T21:44:09.851Z,68.09
2023-04-02T21:46:38.632Z,67.05
2023-04-02T21:49:06.007Z,67.14
2023-04-02T21:51:33.979Z,67.94
2023-04-02T21:54:00.725Z,67.88
2023-04-02T21:56:29.188Z,68.67
2023-04-02T21:58:56.982Z,68.17
2023-04-02T22:01:27.970Z,68.33
2023-04-02T22:03:56.125Z,68.70
2023-04-02T22:06:23.322Z,68.39
2023-04-02T22:09:01.247Z,68.10
2023-04-02T22:11:33.268Z,69.06
2023-04-02T22:14:00.122Z,68.48
2023-04-02T22:16:29.707Z,68.69
2023-04-02T22:19:01.494Z,69.36
2023-04-02T22:21:29.431Z,69.25
2023-04-02T22:23:55.861Z,69.85
2023-04-02T22:26:23.269Z,69.55
2023-04-02T22:28:52.381Z,70.29
2023-04-02T22:31:21.471Z,70.64
2023-04-02T22:33:48.261Z,69.82
2023-04-02T22:36:15.914Z,70.50
2023-04-02T22:38:42.632Z,70.58
2023-04-02T22:41:17.134Z,70.69
2023-04-02T22:43:45.409Z,71.67
2023-04-02T22:46:15.076Z,70.65
2023-04-02T22:48:42.360Z,71.17
2023-04-02T22:51:10.863Z,70.41
2023-04-02T22:53:37.985Z,71.27
2023-04-02T22:56:09.922Z,70.13
2023-04-02T22:58:36.835Z,72.21
2023-04-02T23:01:15.937Z,71.59
2023-04-02T23:03:42.780Z,71.59
2023-04-02T23:06:12.003Z,71.95
2023-04-02T23:08:39.518Z,71.07
2023-04-02T23:11:11.836Z,71.24
2023-04-02T23:13:39.899Z,72.93
2023-04-02T23:16:07.511Z,72.32
2023-04-02T23:18:35.700Z,71.18
2023-04-02T23:21:02.180Z,71.26
2023-04-02T23:23:28.739Z,72.82
2023-04-02T23:26:17.062Z,71.05
2023-04-02T23:28:43.686Z,72.01
2023-04-02T23:31:19.421Z,71.08
2023-04-02T23:33:45.902Z,71.60
2023-04-02T23:36:26.092Z,70.75
2023-04-02T23:38:55.403Z,70.33
2023-04-02T23:41:23.956Z,71.51
2023-04-02T23:43:50.996Z,71.56
2023-04-02T23:46:17.435Z,71.70
2023-04-02T23:48:45.794Z,70.91
2023-04-02T23:51:12.905Z,70.81
2023-04-02T23:53:39.724Z,71.29
2023-04-02T23:56:06.338Z,71.94
2023-04-02T23:58:32.731Z,71.53
